Time;durP1;ratioP1;P1;durP2;ratioP2;P2;SDS_P1;SDS_P2;PMS_P1;PMS_P2;Temp;Humidity;BMP_temperature;BMP_pressure;BME280_temperature;BME280_humidity;BME280_pressure;Samples;Min_cycle;Max_cycle;Signal;HPM_P1;HPM_P2
2023/04/15 00:00:29;;;;;;;23.40;9.70;;;;;;;10.15;100.00;98937.92;110024;1272;22242;-61
2023/04/15 00:03:17;;;;;;;28.70;9.90;;;;;;;10.16;100.00;98940.52;110021;1276;23390;-61
2023/04/15 00:05:48;;;;;;;24.50;8.30;;;;;;;10.16;100.00;98932.56;110003;1278;22173;-61
2023/04/15 00:08:19;;;;;;;24.70;10.30;;;;;;;10.17;100.00;98939.40;110035;1268;22373;-61
2023/04/15 00:10:50;;;;;;;25.20;10.50;;;;;;;10.17;100.00;98936.92;110030;1280;23140;-61
2023/04/15 00:13:21;;;;;;;27.20;9.90;;;;;;;10.17;100.00;98938.45;110035;1280;22345;-61
2023/04/15 00:15:52;;;;;;;26.10;10.70;;;;;;;10.17;100.00;98931.65;110031;1273;22153;-60
2023/04/15 00:18:22;;;;;;;24.80;9.90;;;;;;;10.17;100.00;98934.84;110028;1273;23030;-61
2023/04/15 00:20:53;;;;;;;23.80;9.60;;;;;;;10.17;100.00;98935.80;110030;1271;23161;-61
2023/04/15 00:23:24;;;;;;;20.00;8.40;;;;;;;10.18;100.00;98935.71;109123;1279;24219;-61
2023/04/15 00:25:56;;;;;;;25.40;9.10;;;;;;;10.17;100.00;98936.66;106309;1265;24251;-60
2023/04/15 00:28:27;;;;;;;22.40;9.70;;;;;;;10.17;100.00;98936.86;106388;1280;25424;-58
2023/04/15 00:30:58;;;;;;;25.70;9.80;;;;;;;10.16;100.00;98940.56;110060;1269;22315;-60
2023/04/15 00:33:29;;;;;;;23.90;10.10;;;;;;;10.15;100.00;98938.09;110042;1270;23206;-59
2023/04/15 00:36:00;;;;;;;24.10;9.60;;;;;;;10.15;100.00;98932.15;110068;1272;22200;-62
2023/04/15 00:38:31;;;;;;;20.60;9.00;;;;;;;10.14;100.00;98930.23;110069;1276;22222;-59
2023/04/15 00:41:03;;;;;;;20.70;8.80;;;;;;;10.13;100.00;98931.65;110080;1272;22547;-61
2023/04/15 00:43:34;;;;;;;23.80;10.30;;;;;;;10.13;100.00;98934.43;109092;1280;22648;-59
2023/04/15 00:46:07;;;;;;;25.20;10.20;;;;;;;10.13;100.00;98935.00;106372;1266;22664;-61
2023/04/15 00:48:38;;;;;;;25.50;10.20;;;;;;;10.13;100.00;98936.81;106434;1264;22536;-59
2023/04/15 00:51:09;;;;;;;28.50;10.40;;;;;;;10.13;100.00;98941.52;110049;1271;22204;-60
2023/04/15 00:53:40;;;;;;;26.20;10.00;;;;;;;10.12;100.00;98945.08;110035;1270;22388;-61
2023/04/15 00:56:11;;;;;;;25.80;9.50;;;;;;;10.12;100.00;98948.11;110085;1273;22387;-62
2023/04/15 00:58:42;;;;;;;30.30;11.30;;;;;;;10.12;100.00;98949.69;110082;1275;22275;-60
2023/04/15 01:01:12;;;;;;;26.20;10.60;;;;;;;10.12;100.00;98949.39;110061;1276;22220;-61
2023/04/15 01:03:44;;;;;;;25.20;10.90;;;;;;;10.13;100.00;98950.45;110064;1270;22219;-60
2023/04/15 01:06:16;;;;;;;27.70;10.60;;;;;;;10.14;100.00;98947.37;110072;1272;22255;-61
2023/04/15 01:08:47;;;;;;;27.60;11.60;;;;;;;10.14;100.00;98946.81;110046;1268;22194;-61
2023/04/15 01:11:18;;;;;;;27.30;11.50;;;;;;;10.14;100.00;98945.95;110076;1272;23578;-61
2023/04/15 01:13:50;;;;;;;31.10;12.00;;;;;;;10.14;100.00;98946.55;108712;1273;22537;-60
2023/04/15 01:16:21;;;;;;;30.80;13.00;;;;;;;10.15;100.00;98945.60;110044;1274;22132;-61
2023/04/15 01:18:53;;;;;;;27.50;11.40;;;;;;;10.15;100.00;98945.29;110080;1269;22189;-61
2023/04/15 01:21:24;;;;;;;26.80;11.00;;;;;;;10.15;100.00;98947.67;110053;1276;22208;-61
2023/04/15 01:23:56;;;;;;;23.30;9.90;;;;;;;10.14;100.00;98951.31;110088;1267;23388;-61
2023/04/15 01:26:27;;;;;;;29.30;10.00;;;;;;;10.14;100.00;98950.46;110052;1273;22164;-61
2023/04/15 01:28:58;;;;;;;28.80;10.80;;;;;;;10.14;100.00;98944.92;110044;1265;22252;-62
2023/04/15 01:31:29;;;;;;;26.30;10.90;;;;;;;10.15;100.00;98947.52;108598;1279;22486;-59
2023/04/15 01:34:00;;;;;;;24.50;10.30;;;;;;;10.15;100.00;98950.41;106444;1279;22565;-60
2023/04/15 01:36:31;;;;;;;34.80;9.70;;;;;;;10.15;100.00;98954.31;106345;1278;22574;-60
2023/04/15 01:39:01;;;;;;;23.30;9.50;;;;;;;10.14;100.00;98951.98;106414;1264;24356;-58
2023/04/15 01:41:33;;;;;;;25.50;10.20;;;;;;;10.12;100.00;98949.80;106436;1280;22487;-61
2023/04/15 01:44:04;;;;;;;26.20;9.80;;;;;;;10.11;100.00;98950.20;110070;1273;22459;-61
2023/04/15 01:46:35;;;;;;;22.00;8.40;;;;;;;10.09;100.00;98945.36;110058;1279;22359;-62
2023/04/15 01:49:06;;;;;;;23.50;7.60;;;;;;;10.08;100.00;98942.15;110065;1273;23017;-61
2023/04/15 01:51:37;;;;;;;19.20;7.40;;;;;;;10.07;100.00;98945.41;110056;1276;22163;-61
2023/04/15 01:54:08;;;;;;;27.00;7.90;;;;;;;10.06;100.00;98952.75;110036;1272;22404;-61
2023/04/15 01:56:39;;;;;;;22.70;8.10;;;;;;;10.06;100.00;98955.29;110060;1276;22374;-61
2023/04/15 01:59:09;;;;;;;19.30;7.70;;;;;;;10.07;100.00;98955.66;110066;1265;23434;-61
2023/04/15 02:01:41;;;;;;;20.20;8.50;;;;;;;10.07;100.00;98957.06;110031;1276;22267;-61
2023/04/15 02:04:15;;;;;;;20.30;8.50;;;;;;;10.08;100.00;98960.10;110059;1267;22175;-61
2023/04/15 02:06:46;;;;;;;21.10;8.40;;;;;;;10.09;100.00;98965.03;108483;1273;24272;-60
2023/04/15 02:09:17;;;;;;;26.50;8.60;;;;;;;10.10;100.00;98964.58;106418;1279;22556;-60
2023/04/15 02:11:47;;;;;;;21.80;9.10;;;;;;;10.10;100.00;98965.14;106408;1280;22505;-61
2023/04/15 02:14:18;;;;;;;24.20;9.40;;;;;;;10.09;100.00;98968.02;106392;1270;22545;-60
2023/04/15 02:16:49;;;;;;;21.50;8.90;;;;;;;10.07;100.00;98965.43;106715;1280;22579;-60
2023/04/15 02:19:20;;;;;;;22.90;9.20;;;;;;;10.07;100.00;98967.66;106425;1279;25959;-60
2023/04/15 02:21:51;;;;;;;24.20;8.60;;;;;;;10.05;100.00;98974.71;106443;1276;22537;-60
2023/04/15 02:24:22;;;;;;;22.00;8.60;;;;;;;10.02;100.00;98977.35;106430;1280;22540;-58
2023/04/15 02:26:53;;;;;;;27.50;9.30;;;;;;;10.00;100.00;98973.44;106445;1267;25463;-60
2023/04/15 02:29:24;;;;;;;21.70;8.40;;;;;;;9.98;100.00;98972.37;106418;1276;24268;-60
2023/04/15 02:31:55;;;;;;;21.10;8.10;;;;;;;9.95;100.00;98973.83;106431;1274;24472;-61
2023/04/15 02:34:27;;;;;;;31.00;10.40;;;;;;;9.92;100.00;98973.27;106418;1280;22628;-61
2023/04/15 02:36:57;;;;;;;23.60;9.40;;;;;;;9.90;100.00;98978.48;110050;1273;22134;-61
2023/04/15 02:39:28;;;;;;;23.20;10.00;;;;;;;9.89;100.00;98983.88;110038;1272;22198;-61
2023/04/15 02:41:59;;;;;;;23.10;9.50;;;;;;;9.87;100.00;98981.98;110033;1269;22260;-61
2023/04/15 02:44:31;;;;;;;29.20;10.90;;;;;;;9.85;100.00;98979.75;110036;1273;23547;-60
2023/04/15 02:47:03;;;;;;;20.40;8.30;;;;;;;9.84;100.00;98981.92;110008;1267;22517;-61
2023/04/15 02:49:34;;;;;;;21.10;9.20;;;;;;;9.82;100.00;98978.42;108852;1270;22540;-61
2023/04/15 02:52:05;;;;;;;22.40;9.80;;;;;;;9.82;100.00;98977.73;106340;1277;22765;-59
2023/04/15 02:54:37;;;;;;;20.00;9.20;;;;;;;9.79;100.00;98981.16;110021;1273;23103;-61
2023/04/15 02:57:07;;;;;;;20.30;9.00;;;;;;;9.77;100.00;98985.21;110030;1270;22416;-61
2023/04/15 02:59:38;;;;;;;22.40;9.50;;;;;;;9.74;100.00;98989.05;110052;1277;22183;-60
2023/04/15 03:02:09;;;;;;;22.80;9.10;;;;;;;9.73;100.00;98996.40;109990;1273;23040;-61
2023/04/15 03:04:40;;;;;;;24.40;9.50;;;;;;;9.72;100.00;98999.73;110043;1273;22396;-61
2023/04/15 03:07:11;;;;;;;23.40;10.40;;;;;;;9.70;100.00;99009.52;110025;1267;22261;-61
2023/04/15 03:09:42;;;;;;;20.30;8.90;;;;;;;9.65;100.00;99013.66;110027;1272;22232;-61
2023/04/15 03:12:13;;;;;;;26.70;10.30;;;;;;;9.62;100.00;99024.54;110023;1272;22144;-61
2023/04/15 03:14:43;;;;;;;21.20;9.30;;;;;;;9.58;100.00;99024.27;110028;1273;22215;-61
2023/04/15 03:17:15;;;;;;;22.30;9.20;;;;;;;9.53;100.00;99023.39;110037;1267;22965;-61
2023/04/15 03:19:46;;;;;;;23.70;8.60;;;;;;;9.50;100.00;99023.73;110025;1280;22146;-61
2023/04/15 03:22:16;;;;;;;20.00;7.50;;;;;;;9.44;100.00;99024.02;110014;1276;22282;-62
2023/04/15 03:24:47;;;;;;;19.90;7.80;;;;;;;9.40;100.00;99036.16;110017;1273;22256;-61
2023/04/15 03:27:18;;;;;;;14.60;5.30;;;;;;;9.36;100.00;99040.09;108178;1270;22539;-61
2023/04/15 03:29:49;;;;;;;17.00;6.80;;;;;;;9.30;99.97;99038.55;106396;1276;25672;-60
2023/04/15 03:32:20;;;;;;;15.70;5.40;;;;;;;9.25;99.84;99036.19;106397;1274;24209;-61
2023/04/15 03:34:51;;;;;;;14.40;5.20;;;;;;;9.16;99.37;99045.11;106373;1280;24117;-62
2023/04/15 03:37:22;;;;;;;15.50;4.80;;;;;;;9.09;99.35;99058.02;106415;1280;22701;-61
2023/04/15 03:39:52;;;;;;;13.00;4.70;;;;;;;9.03;99.49;99068.72;106397;1276;22685;-60
2023/04/15 03:42:24;;;;;;;16.60;4.00;;;;;;;8.96;98.81;99063.52;106382;1264;22531;-61
2023/04/15 03:44:55;;;;;;;11.80;4.30;;;;;;;8.90;98.82;99067.62;106373;1280;22995;-60
2023/04/15 03:47:26;;;;;;;16.30;3.50;;;;;;;8.84;98.71;99077.00;106279;1267;22550;-61
2023/04/15 03:49:56;;;;;;;9.40;2.60;;;;;;;8.79;98.71;99081.05;105985;1265;22612;-62
2023/04/15 03:52:27;;;;;;;11.30;2.60;;;;;;;8.76;98.43;99088.47;106096;1280;25440;-61
2023/04/15 03:54:58;;;;;;;12.60;2.40;;;;;;;8.69;97.94;99093.88;106195;1277;22664;-62
2023/04/15 03:57:29;;;;;;;9.80;2.60;;;;;;;8.62;97.91;99092.40;106184;1276;22687;-61
2023/04/15 04:00:00;;;;;;;11.20;2.70;;;;;;;8.60;98.28;99093.50;106284;1279;26614;-62
2023/04/15 04:02:31;;;;;;;12.10;4.20;;;;;;;8.57;98.40;99102.58;109986;1273;22307;-62
2023/04/15 04:05:02;;;;;;;10.90;3.20;;;;;;;8.54;98.35;99104.36;110034;1267;23014;-62
2023/04/15 04:07:33;;;;;;;11.20;3.10;;;;;;;8.49;98.13;99102.10;110021;1264;22221;-62
2023/04/15 04:10:04;;;;;;;9.40;2.50;;;;;;;8.43;97.61;99109.44;110001;1273;22317;-62
2023/04/15 04:12:35;;;;;;;6.10;1.80;;;;;;;8.38;97.28;99109.53;109995;1270;22284;-60
2023/04/15 04:15:07;;;;;;;4.20;1.30;;;;;;;8.32;96.92;99108.45;110024;1273;22181;-60
2023/04/15 04:17:38;;;;;;;6.30;1.40;;;;;;;8.26;96.78;99107.53;110034;1270;22334;-60
2023/04/15 04:20:12;;;;;;;4.70;1.10;;;;;;;8.23;96.95;99107.08;110040;1273;22219;-61
2023/04/15 04:22:44;;;;;;;4.50;1.20;;;;;;;8.19;96.81;99118.16;110021;1280;22217;-63
2023/04/15 04:25:15;;;;;;;6.30;1.10;;;;;;;8.18;96.94;99125.19;110051;1270;22181;-59
2023/04/15 04:27:46;;;;;;;3.30;0.90;;;;;;;8.13;96.46;99130.02;110038;1273;22160;-61
2023/04/15 04:30:17;;;;;;;4.20;0.90;;;;;;;8.09;96.59;99130.95;107570;1273;24383;-59
2023/04/15 04:32:49;;;;;;;3.60;0.80;;;;;;;8.07;96.74;99131.07;110012;1276;22191;-61
2023/04/15 04:35:20;;;;;;;6.30;1.00;;;;;;;8.05;96.57;99133.83;110038;1276;22200;-60
2023/04/15 04:37:52;;;;;;;5.10;0.80;;;;;;;8.03;96.54;99139.21;110027;1273;22249;-65
2023/04/15 04:40:23;;;;;;;4.10;0.70;;;;;;;7.99;96.24;99149.17;110025;1273;22175;-61
2023/04/15 04:42:54;;;;;;;3.20;0.60;;;;;;;7.97;95.96;99145.17;107776;1276;22740;-59
2023/04/15 04:45:26;;;;;;;5.40;0.80;;;;;;;7.94;95.91;99149.31;106235;1276;22680;-59
2023/04/15 04:47:56;;;;;;;3.90;0.90;;;;;;;7.91;95.90;99156.16;110009;1273;22291;-61
2023/04/15 04:50:27;;;;;;;3.80;0.60;;;;;;;7.92;96.27;99160.96;110043;1272;23387;-61
2023/04/15 04:52:58;;;;;;;2.70;0.70;;;;;;;7.90;95.93;99159.42;110031;1272;22388;-62
2023/04/15 04:55:30;;;;;;;1.80;0.40;;;;;;;7.89;95.95;99153.08;110040;1279;22187;-61
2023/04/15 04:58:01;;;;;;;2.50;0.60;;;;;;;7.86;95.55;99153.86;110009;1272;22836;-61
2023/04/15 05:00:32;;;;;;;2.90;0.60;;;;;;;7.84;95.47;99158.27;109973;1273;22334;-61
2023/04/15 05:03:03;;;;;;;6.30;0.60;;;;;;;7.84;95.93;99154.55;110012;1273;22200;-61
2023/04/15 05:05:34;;;;;;;1.90;0.50;;;;;;;7.85;95.79;99150.82;110019;1272;22375;-62
2023/04/15 05:08:05;;;;;;;3.00;0.60;;;;;;;7.85;95.63;99149.15;110031;1273;22136;-61
2023/04/15 05:10:36;;;;;;;2.90;0.60;;;;;;;7.86;95.71;99153.31;110030;1280;22205;-62
2023/04/15 05:13:07;;;;;;;2.80;0.60;;;;;;;7.85;95.66;99157.80;110024;1273;22155;-61
2023/04/15 05:15:40;;;;;;;4.00;0.60;;;;;;;7.84;95.53;99163.43;110008;1276;22419;-61
2023/04/15 05:18:11;;;;;;;1.60;0.50;;;;;;;7.85;95.66;99163.36;110058;1265;22208;-61
2023/04/15 05:20:41;;;;;;;2.20;0.50;;;;;;;7.86;95.48;99169.42;110056;1265;22213;-60
2023/04/15 05:23:12;;;;;;;3.50;0.80;;;;;;;7.87;95.48;99165.75;110029;1272;22334;-62
2023/04/15 05:25:43;;;;;;;1.90;0.50;;;;;;;7.87;95.39;99167.27;110038;1280;22194;-60
2023/04/15 05:28:14;;;;;;;4.20;0.90;;;;;;;7.88;95.23;99172.63;110046;1265;22209;-60
2023/04/15 05:30:45;;;;;;;3.90;0.90;;;;;;;7.86;95.29;99176.85;110019;1273;22288;-61
2023/04/15 05:33:16;;;;;;;3.50;0.70;;;;;;;7.89;95.62;99182.98;110038;1270;22163;-60
2023/04/15 05:35:47;;;;;;;2.20;0.60;;;;;;;7.89;95.53;99184.33;110005;1270;22990;-60
2023/04/15 05:38:18;;;;;;;2.90;0.60;;;;;;;7.92;95.58;99189.61;109994;1264;22251;-61
2023/04/15 05:40:48;;;;;;;6.30;0.80;;;;;;;7.94;95.49;99191.48;110021;1280;22978;-60
2023/04/15 05:43:20;;;;;;;2.20;0.50;;;;;;;7.98;95.40;99192.71;110017;1274;22249;-60
2023/04/15 05:45:51;;;;;;;2.60;0.50;;;;;;;7.98;95.11;99197.27;110017;1264;22237;-60
2023/04/15 05:48:22;;;;;;;2.40;0.50;;;;;;;8.00;95.16;99199.81;110007;1267;22354;-59
2023/04/15 05:50:53;;;;;;;2.70;0.60;;;;;;;8.02;95.51;99200.55;110011;1270;23065;-60
2023/04/15 05:53:24;;;;;;;5.60;0.50;;;;;;;8.07;95.66;99202.17;110006;1267;22306;-60
2023/04/15 05:55:55;;;;;;;2.00;0.60;;;;;;;8.12;95.98;99205.93;110030;1264;23454;-59
2023/04/15 05:58:26;;;;;;;1.90;0.40;;;;;;;8.17;95.52;99203.96;110048;1276;22204;-60
2023/04/15 06:00:57;;;;;;;1.80;0.30;;;;;;;8.22;95.45;99211.45;110009;1270;22225;-60
2023/04/15 06:03:28;;;;;;;1.60;0.40;;;;;;;8.27;95.44;99216.50;109785;1272;22573;-58
2023/04/15 06:05:59;;;;;;;2.90;0.60;;;;;;;8.32;95.07;99221.71;106290;1274;25630;-60
2023/04/15 06:08:30;;;;;;;3.70;0.70;;;;;;;8.36;94.89;99226.52;106159;1274;26684;-61
2023/04/15 06:11:02;;;;;;;1.40;0.40;;;;;;;8.40;94.95;99226.30;109987;1264;22933;-61
2023/04/15 06:13:33;;;;;;;3.20;0.50;;;;;;;8.45;94.94;99226.21;110040;1264;22511;-59
2023/04/15 06:16:05;;;;;;;5.60;0.70;;;;;;;8.49;94.95;99234.19;110030;1274;22150;-62
2023/04/15 06:18:36;;;;;;;6.20;0.80;;;;;;;8.51;94.66;99233.57;110036;1257;22415;-62
2023/04/15 06:21:07;;;;;;;4.30;0.60;;;;;;;8.53;94.17;99234.05;109931;1269;22201;-61
2023/04/15 06:23:39;;;;;;;2.40;0.50;;;;;;;8.55;93.99;99238.93;109979;1274;22352;-61
2023/04/15 06:26:11;;;;;;;3.60;0.50;;;;;;;8.58;94.01;99240.83;110020;1264;22215;-67
2023/04/15 06:28:43;;;;;;;2.30;0.50;;;;;;;8.61;93.76;99246.06;110026;1273;22383;-61
2023/04/15 06:31:14;;;;;;;2.90;0.40;;;;;;;8.63;93.85;99243.86;109992;1273;22222;-60
2023/04/15 06:33:45;;;;;;;1.90;0.50;;;;;;;8.66;93.96;99243.73;109932;1273;22140;-64
2023/04/15 06:36:16;;;;;;;1.90;0.30;;;;;;;8.69;94.02;99238.62;109952;1267;22647;-60
2023/04/15 06:38:47;;;;;;;2.10;0.50;;;;;;;8.72;93.60;99235.16;109986;1271;22263;-61
2023/04/15 06:41:19;;;;;;;2.40;0.60;;;;;;;8.74;93.57;99238.81;106547;1268;24118;-60
2023/04/15 06:43:51;;;;;;;4.90;0.70;;;;;;;8.77;93.46;99245.06;106443;1279;24246;-60
2023/04/15 06:46:22;;;;;;;2.20;0.70;;;;;;;8.79;93.47;99249.45;109995;1273;22215;-60
2023/04/15 06:48:53;;;;;;;1.90;0.50;;;;;;;8.82;93.17;99248.91;109982;1274;22201;-61
2023/04/15 06:51:24;;;;;;;1.60;0.50;;;;;;;8.84;93.33;99246.20;110009;1273;23377;-60
2023/04/15 06:53:56;;;;;;;2.40;0.50;;;;;;;8.87;93.09;99243.95;110019;1270;22271;-61
2023/04/15 06:56:27;;;;;;;3.70;0.70;;;;;;;8.89;93.03;99249.70;109998;1265;22821;-61
2023/04/15 06:58:58;;;;;;;3.60;0.60;;;;;;;8.93;93.14;99250.54;107032;1274;22677;-60
2023/04/15 07:01:29;;;;;;;1.90;0.50;;;;;;;8.96;93.09;99251.44;106413;1279;22627;-60
2023/04/15 07:04:00;;;;;;;5.50;0.90;;;;;;;8.99;92.92;99257.48;106360;1273;22651;-58
2023/04/15 07:06:31;;;;;;;9.00;1.10;;;;;;;9.03;92.75;99261.12;106312;1264;22651;-57
2023/04/15 07:09:04;;;;;;;4.50;1.10;;;;;;;9.08;92.76;99262.41;106310;1264;22518;-56
2023/04/15 07:11:36;;;;;;;3.70;0.90;;;;;;;9.12;92.62;99263.96;110024;1273;22217;-59
2023/04/15 07:14:07;;;;;;;3.50;1.20;;;;;;;9.15;92.56;99265.58;109984;1273;22191;-59
2023/04/15 07:16:39;;;;;;;6.90;1.60;;;;;;;9.18;92.32;99269.04;110026;1280;22432;-58
2023/04/15 07:19:12;;;;;;;5.20;1.20;;;;;;;9.21;92.12;99269.08;109990;1272;22389;-60
2023/04/15 07:21:43;;;;;;;7.40;1.40;;;;;;;9.24;92.01;99273.25;109978;1272;22202;-57
2023/04/15 07:24:17;;;;;;;3.10;0.80;;;;;;;9.27;92.02;99277.02;110010;1273;22181;-58
2023/04/15 07:26:48;;;;;;;6.00;1.40;;;;;;;9.32;92.09;99284.75;110000;1273;22181;-60
2023/04/15 07:29:19;;;;;;;10.00;1.50;;;;;;;9.37;91.84;99296.80;109999;1273;22262;-58
2023/04/15 07:31:50;;;;;;;6.20;1.30;;;;;;;9.41;91.82;99299.68;109968;1276;22207;-64
2023/04/15 07:34:21;;;;;;;4.80;1.10;;;;;;;9.46;91.57;99296.12;109991;1280;22220;-58
2023/04/15 07:36:53;;;;;;;2.40;0.70;;;;;;;9.50;91.59;99291.08;108799;1276;22500;-58
2023/04/15 07:39:25;;;;;;;3.30;0.70;;;;;;;9.50;91.10;99289.16;107117;1272;22710;-60
2023/04/15 07:41:58;;;;;;;3.50;0.90;;;;;;;9.47;90.95;99288.98;107254;1273;22532;-60
2023/04/15 07:44:39;;;;;;;3.80;0.60;;;;;;;9.47;90.89;99292.02;107037;1264;22526;-61
2023/04/15 07:47:11;;;;;;;4.60;0.80;;;;;;;9.46;90.88;99296.08;107352;1264;25011;-60
2023/04/15 07:49:44;;;;;;;3.40;0.80;;;;;;;9.49;90.94;99295.29;108416;1276;24279;-59
2023/04/15 07:52:40;;;;;;;;;;;;;;;;;;;;;
2023/04/15 07:55:18;;;;;;;4.50;0.80;;;;;;;9.58;90.56;99289.49;106358;1280;25450;-60
2023/04/15 07:57:50;;;;;;;4.30;1.00;;;;;;;9.59;89.99;99295.86;109044;1274;22668;-58
2023/04/15 08:00:22;;;;;;;5.40;0.70;;;;;;;9.60;89.96;99294.37;106286;1273;22746;-59
2023/04/15 08:02:56;;;;;;;3.20;0.80;;;;;;;9.62;89.91;99302.08;106895;1273;22523;-57
2023/04/15 08:05:29;;;;;;;5.20;1.10;;;;;;;9.68;90.24;99305.42;108550;1270;24210;-59
2023/04/15 08:08:03;;;;;;;3.40;0.90;;;;;;;9.77;90.40;99306.55;107274;1273;22526;-60
2023/04/15 08:10:37;;;;;;;5.20;1.20;;;;;;;9.86;89.79;99309.90;106355;1264;22546;-60
2023/04/15 08:13:09;;;;;;;3.50;0.70;;;;;;;9.93;89.73;99319.16;106581;1273;24233;-58
2023/04/15 08:16:18;;;;;;;3.70;0.70;;;;;;;9.98;89.40;99319.52;108588;1273;22652;-59
2023/04/15 08:18:51;;;;;;;4.30;1.00;;;;;;;10.09;89.43;99325.92;107037;1273;22532;-59
2023/04/15 08:21:24;;;;;;;4.20;0.90;;;;;;;10.18;88.98;99327.12;107963;1264;24397;-59
2023/04/15 08:24:00;;;;;;;4.10;0.80;;;;;;;10.31;88.67;99332.92;108437;1262;24394;-59
2023/04/15 08:26:32;;;;;;;2.90;0.70;;;;;;;10.46;88.79;99329.30;106392;1269;24082;-59
2023/04/15 08:29:04;;;;;;;2.40;0.50;;;;;;;10.57;87.41;99323.73;107589;1273;22530;-58
2023/04/15 08:31:38;;;;;;;2.70;0.70;;;;;;;10.66;87.35;99327.41;107258;1273;26522;-59
2023/04/15 08:34:13;;;;;;;2.40;0.50;;;;;;;10.73;86.87;99329.73;106728;1271;24325;-59
2023/04/15 08:36:44;;;;;;;2.10;0.50;;;;;;;10.81;87.00;99337.57;106204;1264;22585;-61
2023/04/15 08:39:15;;;;;;;3.90;0.80;;;;;;;10.90;86.38;99336.38;106327;1264;23824;-59
2023/04/15 08:41:51;;;;;;;2.40;0.50;;;;;;;10.98;86.44;99333.40;109382;1264;22547;-60
2023/04/15 08:44:25;;;;;;;2.20;0.40;;;;;;;11.06;86.07;99331.45;106974;1273;22816;-59
2023/04/15 08:47:01;;;;;;;4.40;0.60;;;;;;;11.16;86.08;99339.73;110001;1272;22405;-60
2023/04/15 08:49:32;;;;;;;5.40;0.50;;;;;;;11.29;86.30;99340.02;110046;1272;23008;-60
2023/04/15 08:52:04;;;;;;;1.50;0.40;;;;;;;11.42;85.47;99344.52;108989;1276;25949;-59
2023/04/15 08:54:41;;;;;;;2.20;0.40;;;;;;;11.50;84.91;99346.36;106809;1264;22543;-60
2023/04/15 08:57:13;;;;;;;1.60;0.30;;;;;;;11.58;83.71;99346.21;106365;1264;24176;-59
2023/04/15 08:59:44;;;;;;;1.80;0.40;;;;;;;11.64;83.99;99348.26;105963;1265;22745;-58
2023/04/15 09:02:16;;;;;;;3.80;0.60;;;;;;;11.74;84.16;99345.27;105913;1273;25900;-58
2023/04/15 09:04:47;;;;;;;2.60;0.40;;;;;;;11.85;83.18;99344.55;106010;1280;22688;-58
2023/04/15 09:07:18;;;;;;;2.00;0.30;;;;;;;11.89;82.40;99346.59;108213;1276;25348;-56
2023/04/15 09:09:51;;;;;;;2.50;0.30;;;;;;;11.91;82.71;99344.60;106131;1268;22540;-58
2023/04/15 09:12:22;;;;;;;1.50;0.40;;;;;;;11.96;82.64;99346.53;105810;1273;23224;-58
2023/04/15 09:14:52;;;;;;;1.50;0.30;;;;;;;12.03;82.09;99347.89;105861;1273;22662;-58
2023/04/15 09:17:25;;;;;;;1.00;0.30;;;;;;;12.04;80.85;99352.59;105866;1264;22521;-59
2023/04/15 09:20:09;;;;;;;1.70;0.20;;;;;;;12.08;81.16;99358.88;105975;1258;23873;-61
2023/04/15 09:22:41;;;;;;;0.70;0.20;;;;;;;12.10;80.09;99358.84;110028;1279;22393;-58
2023/04/15 09:25:29;;;;;;;3.30;0.30;;;;;;;12.07;80.09;99359.39;110009;1273;23062;-59
2023/04/15 09:28:02;;;;;;;2.40;0.50;;;;;;;12.10;79.57;99367.27;110026;1274;22137;-62
2023/04/15 09:30:33;;;;;;;1.10;0.20;;;;;;;12.13;79.73;99367.33;110012;1274;22126;-66
2023/04/15 09:33:07;;;;;;;2.00;0.30;;;;;;;12.14;79.13;99363.30;110007;1267;22202;-59
2023/04/15 09:35:38;;;;;;;0.70;0.20;;;;;;;12.15;78.61;99365.89;109990;1273;23033;-59
2023/04/15 09:38:10;;;;;;;0.60;0.10;;;;;;;12.15;77.57;99365.27;110015;1273;22233;-61
2023/04/15 09:40:42;;;;;;;0.80;0.20;;;;;;;12.14;78.19;99370.33;109771;1280;22598;-59
2023/04/15 09:43:15;;;;;;;1.30;0.20;;;;;;;12.14;77.98;99366.15;110013;1274;22214;-61
2023/04/15 09:45:51;;;;;;;1.40;0.30;;;;;;;12.16;77.35;99372.71;110003;1272;22276;-61
2023/04/15 09:48:25;;;;;;;0.70;0.10;;;;;;;12.22;78.25;99374.52;110025;1275;22205;-61
2023/04/15 09:51:00;;;;;;;2.20;0.30;;;;;;;12.28;77.74;99378.70;110008;1270;22292;-60
2023/04/15 09:53:32;;;;;;;1.40;0.30;;;;;;;12.32;76.87;99383.46;110060;1274;22341;-61
2023/04/15 09:56:06;;;;;;;1.60;0.30;;;;;;;12.37;77.10;99381.39;110006;1273;22329;-61
2023/04/15 09:58:38;;;;;;;1.20;0.10;;;;;;;12.46;77.36;99380.90;110010;1279;23436;-61
2023/04/15 10:01:10;;;;;;;2.60;0.40;;;;;;;12.55;77.14;99379.40;109985;1272;22182;-61
2023/04/15 10:03:42;;;;;;;2.30;0.20;;;;;;;12.62;76.65;99381.42;110019;1274;22264;-61
2023/04/15 10:06:15;;;;;;;1.90;0.20;;;;;;;12.70;76.60;99377.02;110027;1260;22154;-61
2023/04/15 10:08:46;;;;;;;2.90;0.30;;;;;;;12.73;75.16;99381.02;110007;1274;22302;-60
2023/04/15 10:11:17;;;;;;;0.70;0.10;;;;;;;12.78;75.48;99388.08;110020;1273;22990;-61
2023/04/15 10:13:49;;;;;;;0.90;0.20;;;;;;;12.82;75.18;99384.96;110028;1280;22204;-61
2023/04/15 10:16:21;;;;;;;1.10;0.20;;;;;;;12.90;74.41;99378.00;110022;1276;22277;-61
2023/04/15 10:18:55;;;;;;;1.30;0.10;;;;;;;12.90;73.63;99374.75;110000;1277;23018;-61
2023/04/15 10:21:28;;;;;;;2.00;0.20;;;;;;;12.89;74.10;99378.62;110047;1274;22261;-60
2023/04/15 10:24:00;;;;;;;1.60;0.20;;;;;;;12.88;72.89;99377.76;109994;1272;22371;-61
2023/04/15 10:26:31;;;;;;;1.50;0.20;;;;;;;12.81;72.82;99375.84;110034;1264;23104;-61
2023/04/15 10:29:03;;;;;;;3.10;0.40;;;;;;;12.79;73.59;99378.20;110003;1265;22347;-61
2023/04/15 10:31:37;;;;;;;1.20;0.20;;;;;;;12.77;73.03;99378.01;110028;1275;22409;-61
2023/04/15 10:34:09;;;;;;;3.30;0.20;;;;;;;12.76;73.40;99376.27;110024;1264;22171;-61
2023/04/15 10:36:40;;;;;;;1.10;0.10;;;;;;;12.80;73.15;99382.98;110026;1273;22907;-61
2023/04/15 10:39:41;;;;;;;0.90;0.20;;;;;;;12.86;73.47;99383.91;110045;1275;22413;-61
2023/04/15 10:42:14;;;;;;;0.70;0.20;;;;;;;12.95;72.16;99385.63;109995;1274;22492;-60
2023/04/15 10:44:50;;;;;;;0.80;0.20;;;;;;;12.97;72.45;99391.73;110021;1273;22439;-60
2023/04/15 10:47:22;;;;;;;1.40;0.10;;;;;;;12.99;71.95;99395.64;110009;1274;22184;-61
2023/04/15 10:49:57;;;;;;;1.50;0.30;;;;;;;13.04;72.33;99394.30;110011;1273;22163;-60
2023/04/15 10:52:29;;;;;;;1.60;0.20;;;;;;;13.09;71.76;99394.05;110023;1279;22121;-61
2023/04/15 10:55:16;;;;;;;0.40;0.10;;;;;;;13.05;69.95;99393.85;110012;1276;22190;-60
2023/04/15 10:57:51;;;;;;;0.40;0.00;;;;;;;12.96;70.44;99398.30;110011;1274;22213;-61
2023/04/15 11:00:26;;;;;;;0.70;0.10;;;;;;;12.98;70.83;99398.15;110010;1274;22198;-61
2023/04/15 11:02:59;;;;;;;2.00;0.20;;;;;;;13.02;70.67;99400.83;110012;1274;22182;-64
2023/04/15 11:05:52;;;;;;;1.50;0.20;;;;;;;13.11;69.53;99402.39;110032;1273;22323;-61
2023/04/15 11:08:57;;;;;;;0.70;0.20;;;;;;;13.12;69.36;99398.06;110029;1276;22212;-61
2023/04/15 11:11:59;;;;;;;1.10;0.20;;;;;;;13.13;69.15;99402.33;110044;1270;22194;-61
2023/04/15 11:14:30;;;;;;;1.40;0.20;;;;;;;13.19;68.97;99397.96;110004;1274;22310;-61
2023/04/15 11:17:01;;;;;;;1.00;0.20;;;;;;;13.25;69.22;99394.28;109979;1271;23141;-60
2023/04/15 11:19:39;;;;;;;0.90;0.20;;;;;;;13.25;68.13;99393.25;110051;1279;22411;-60
2023/04/15 11:22:11;;;;;;;2.20;0.30;;;;;;;13.23;67.95;99396.11;110032;1274;22200;-61
2023/04/15 11:24:56;;;;;;;0.90;0.10;;;;;;;13.27;68.53;99401.45;110010;1271;22396;-60
2023/04/15 11:27:32;;;;;;;1.00;0.20;;;;;;;13.38;67.89;99401.27;110035;1274;22151;-61
2023/04/15 11:30:15;;;;;;;0.80;0.20;;;;;;;13.47;67.27;99403.78;110032;1276;23071;-61
2023/04/15 11:32:46;;;;;;;0.80;0.20;;;;;;;13.64;68.49;99396.42;110006;1276;22933;-61
2023/04/15 11:35:18;;;;;;;1.50;0.20;;;;;;;13.89;67.71;99403.59;110024;1273;22196;-61
2023/04/15 11:37:49;;;;;;;4.40;1.00;;;;;;;14.09;67.39;99407.25;110036;1279;22383;-61
2023/04/15 11:40:26;;;;;;;1.70;0.40;;;;;;;14.24;66.83;99405.09;109991;1279;22175;-61
2023/04/15 11:43:11;;;;;;;1.20;0.30;;;;;;;14.34;66.27;99405.33;106167;1274;25432;-60
2023/04/15 11:45:51;;;;;;;2.10;0.20;;;;;;;14.41;65.54;99406.08;110023;1269;22189;-61
2023/04/15 11:48:25;;;;;;;3.50;0.20;;;;;;;14.51;65.57;99405.87;110017;1267;22196;-62